Time;durP1;ratioP1;P1;durP2;ratioP2;P2;SDS_P1;SDS_P2;PMS_P1;PMS_P2;Temp;Humidity;BMP_temperature;BMP_pressure;BME280_temperature;BME280_humidity;BME280_pressure;Samples;Min_cycle;Max_cycle;Signal;HPM_P1;HPM_P2
2022/06/12 00:01:24;;;;;;;30.75;8.05;;;;;;;16.93;63.65;101752.97;5024418;27;119585;-80
2022/06/12 00:03:53;;;;;;;21.42;7.50;;;;;;;16.81;63.26;101735.34;4988474;28;120000;-81
2022/06/12 00:06:21;;;;;;;29.90;8.23;;;;;;;16.93;63.76;101750.19;4983556;28;119427;-81
2022/06/12 00:08:50;;;;;;;27.98;8.13;;;;;;;16.93;64.02;101753.75;5001763;28;119694;-81
2022/06/12 00:11:19;;;;;;;22.02;7.82;;;;;;;16.90;63.67;101749.13;5003482;28;120131;-80
2022/06/12 00:13:55;;;;;;;29.35;8.00;;;;;;;16.94;63.35;101760.06;5001028;28;119412;-80
2022/06/12 00:16:21;;;;;;;22.42;8.02;;;;;;;16.88;63.25;101754.38;4983886;28;120594;-80
2022/06/12 00:18:48;;;;;;;20.00;8.25;;;;;;;16.86;63.26;101751.31;4986744;28;119413;-79
2022/06/12 00:21:15;;;;;;;23.42;8.38;;;;;;;16.82;62.80;101750.72;4984552;28;119333;-81
2022/06/12 00:23:52;;;;;;;24.13;8.57;;;;;;;16.82;62.96;101759.03;4992405;28;120827;-80
2022/06/12 00:26:23;;;;;;;27.63;8.05;;;;;;;16.78;62.76;101753.63;4999202;28;119581;-81
2022/06/12 00:28:56;;;;;;;25.45;7.47;;;;;;;16.77;62.74;101751.34;4982078;28;119538;-80
2022/06/12 00:31:22;;;;;;;31.65;8.32;;;;;;;16.74;62.96;101753.03;4982646;28;119292;-81
2022/06/12 00:33:48;;;;;;;26.75;8.63;;;;;;;16.74;63.05;101753.03;5002524;28;119360;-80
2022/06/12 00:36:13;;;;;;;28.33;8.95;;;;;;;16.74;63.28;101755.03;5022141;28;119356;-81
2022/06/12 00:38:39;;;;;;;26.40;8.40;;;;;;;16.74;63.43;101757.81;5002322;28;120252;-81
2022/06/12 00:41:06;;;;;;;24.40;7.97;;;;;;;16.67;63.35;101742.28;4986953;28;119402;-81
2022/06/12 00:43:34;;;;;;;20.27;8.15;;;;;;;16.70;63.28;101752.44;4990433;28;119947;-81
2022/06/12 00:46:01;;;;;;;26.27;8.07;;;;;;;16.71;63.69;101747.66;5003274;28;120075;-81
2022/06/12 00:48:31;;;;;;;22.23;7.90;;;;;;;16.70;63.52;101746.13;5002443;28;119612;-81
2022/06/12 00:51:17;;;;;;;28.88;8.13;;;;;;;16.69;63.39;101744.59;5002501;28;120677;-80
2022/06/12 00:53:59;;;;;;;25.50;8.27;;;;;;;16.65;63.43;101732.88;4988742;28;119719;-80
2022/06/12 00:56:26;;;;;;;26.10;8.30;;;;;;;16.66;63.28;101737.19;4985202;28;119455;-81
2022/06/12 00:58:56;;;;;;;29.00;8.00;;;;;;;16.63;63.67;101735.38;4984745;28;120978;-82
2022/06/12 01:01:39;;;;;;;25.52;7.38;;;;;;;16.56;63.54;101728.94;4995454;28;119715;-81
2022/06/12 01:06:54;;;;;;;22.10;7.68;;;;;;;16.53;63.39;101732.59;4987299;28;119409;-81
2022/06/12 01:09:28;;;;;;;18.88;7.53;;;;;;;16.56;63.86;101740.00;4987430;28;119571;-81
2022/06/12 01:11:55;;;;;;;;;;;;;;;16.52;63.61;101736.59;4993065;28;122276;-80
2022/06/12 01:14:27;;;;;;;24.75;8.00;;;;;;;16.55;63.89;101729.38;4975126;28;119957;-81
2022/06/12 01:16:56;;;;;;;28.38;8.20;;;;;;;16.53;63.97;101724.28;4987818;28;119424;-81
2022/06/12 01:19:27;;;;;;;24.15;7.72;;;;;;;16.55;63.85;101724.59;4972959;28;122196;-81
2022/06/12 01:21:59;;;;;;;24.85;8.00;;;;;;;16.54;63.60;101719.53;4986219;28;118548;-81
2022/06/12 01:24:37;;;;;;;23.85;7.95;;;;;;;16.51;63.93;101724.00;5004752;28;119426;-80
2022/06/12 01:27:33;;;;;;;23.02;7.40;;;;;;;16.48;63.66;101722.16;5007819;28;119947;-81
2022/06/12 01:30:13;;;;;;;24.85;7.78;;;;;;;16.40;63.55;101712.66;4999223;28;119306;-80
2022/06/12 01:33:07;;;;;;;24.95;7.63;;;;;;;16.42;63.72;101717.72;4991486;28;120821;-81
2022/06/12 01:36:01;;;;;;;21.80;7.25;;;;;;;16.38;63.63;101715.13;4989812;28;119370;-79
2022/06/12 01:38:36;;;;;;;27.70;8.15;;;;;;;16.39;64.18;101708.34;4966087;28;120176;-80
2022/06/12 01:41:15;;;;;;;27.27;8.32;;;;;;;16.40;64.16;101701.56;4968317;28;122104;-81
2022/06/12 01:43:48;;;;;;;22.55;7.35;;;;;;;16.40;64.19;101704.34;4985335;28;119592;-80
2022/06/12 01:46:21;;;;;;;26.30;8.15;;;;;;;16.34;63.50;101686.84;5003781;28;120140;-79
2022/06/12 01:48:53;;;;;;;28.65;7.68;;;;;;;16.40;63.64;101701.56;5007985;28;121003;-79
2022/06/12 01:51:30;;;;;;;27.00;7.95;;;;;;;16.38;63.66;101697.75;4989711;28;119259;-80
2022/06/12 01:54:16;;;;;;;28.25;8.13;;;;;;;16.32;64.02;101694.81;4986518;28;119526;-80
2022/06/12 01:56:47;;;;;;;26.00;7.82;;;;;;;16.35;63.68;101698.69;4986745;28;119805;-81
2022/06/12 01:59:39;;;;;;;26.45;7.28;;;;;;;16.33;63.99;101696.38;4985474;28;119530;-82
2022/06/12 02:02:34;;;;;;;21.75;7.07;;;;;;;16.30;63.78;101686.22;4974333;28;121571;-80
2022/06/12 02:05:25;;;;;;;21.98;8.20;;;;;;;16.31;63.76;101693.28;5002481;28;119871;-80
2022/06/12 02:07:58;;;;;;;21.83;7.43;;;;;;;16.23;63.82;101675.47;4987161;28;119401;-80
2022/06/12 02:10:36;;;;;;;24.23;7.75;;;;;;;16.20;64.10;101670.88;4990280;28;119355;-81
2022/06/12 02:13:11;;;;;;;24.45;7.70;;;;;;;16.24;64.34;101682.53;4992869;28;119434;-81
2022/06/12 02:16:04;;;;;;;23.88;8.38;;;;;;;16.22;64.44;101685.00;4993743;28;120106;-81
2022/06/12 02:18:41;;;;;;;22.63;7.95;;;;;;;16.21;63.87;101683.47;4986004;28;119369;-82
2022/06/12 02:21:15;;;;;;;22.92;7.10;;;;;;;16.20;64.52;101681.94;4984489;28;119381;-81
2022/06/12 02:23:51;;;;;;;17.30;6.65;;;;;;;16.22;63.94;101685.00;4997158;28;119431;-81
2022/06/12 02:26:23;;;;;;;22.23;7.68;;;;;;;16.21;63.95;101684.25;5018466;28;119564;-81
2022/06/12 02:28:53;;;;;;;25.13;7.65;;;;;;;16.17;63.64;101677.34;5006741;28;119775;-81
2022/06/12 02:31:25;;;;;;;20.55;8.07;;;;;;;16.23;64.24;101683.78;4984001;28;120120;-81
2022/06/12 02:34:01;;;;;;;21.83;7.47;;;;;;;16.25;64.18;101684.06;5002754;28;119395;-80
2022/06/12 02:36:36;;;;;;;27.60;7.35;;;;;;;16.15;64.03;101663.19;5009813;28;119236;-81
2022/06/12 02:39:18;;;;;;;22.75;7.35;;;;;;;16.27;64.47;101681.59;4987680;28;119371;-82
2022/06/12 02:42:01;;;;;;;24.05;7.43;;;;;;;16.27;64.28;101681.59;4983216;28;119953;-81
2022/06/12 02:44:40;;;;;;;25.90;7.13;;;;;;;16.25;64.02;101664.69;4980805;28;120198;-81
2022/06/12 02:47:12;;;;;;;23.20;7.03;;;;;;;16.26;63.85;101678.06;4995381;28;120054;-81
2022/06/12 02:49:40;;;;;;;20.00;6.80;;;;;;;16.27;63.93;101665.00;5004506;28;119295;-81
2022/06/12 02:52:29;;;;;;;25.67;7.00;;;;;;;16.26;63.97;101666.22;5004487;28;120583;-81
2022/06/12 02:55:05;;;;;;;22.65;6.85;;;;;;;16.26;64.07;101660.69;4994220;28;119318;-81
2022/06/12 02:58:08;;;;;;;27.23;7.85;;;;;;;16.30;64.39;101658.53;5003450;28;119601;-81
2022/06/12 03:01:08;;;;;;;24.08;6.95;;;;;;;16.30;64.35;101641.91;5024701;28;123235;-81
2022/06/12 03:03:41;;;;;;;30.83;7.75;;;;;;;16.35;64.21;101649.59;4961922;28;119724;-80
2022/06/12 03:06:11;;;;;;;23.27;6.88;;;;;;;16.40;64.19;101651.72;4986837;28;120012;-81
2022/06/12 03:08:45;;;;;;;24.02;6.22;;;;;;;16.42;64.51;101646.50;5004156;28;119368;-80
2022/06/12 03:11:15;;;;;;;24.48;6.95;;;;;;;16.45;64.78;101647.56;4989065;28;120281;-81
2022/06/12 03:13:41;;;;;;;20.33;6.15;;;;;;;16.51;64.05;101643.69;4983424;28;119412;-81
2022/06/12 03:16:16;;;;;;;19.73;6.70;;;;;;;16.51;64.32;101649.22;4985096;28;119320;-79
2022/06/12 03:18:49;;;;;;;20.13;6.57;;;;;;;16.57;64.82;101650.13;4984634;28;119444;-81
2022/06/12 03:21:44;;;;;;;23.13;6.65;;;;;;;16.62;64.49;101648.72;4986813;28;121646;-80
2022/06/12 03:24:22;;;;;;;;;;;;;;;16.63;64.23;101650.25;4999512;28;118552;-80
2022/06/12 03:27:17;;;;;;;21.08;6.40;;;;;;;16.70;64.67;101652.72;4986863;28;122184;-80
2022/06/12 03:29:55;;;;;;;23.42;7.47;;;;;;;16.73;64.71;101651.00;4982976;28;119410;-81
2022/06/12 03:32:38;;;;;;;22.20;7.00;;;;;;;16.76;64.84;101647.28;4983722;28;119575;-81
2022/06/12 03:35:42;;;;;;;27.37;7.67;;;;;;;16.77;64.79;101648.81;4983989;28;119343;-80
2022/06/12 03:38:24;;;;;;;27.00;7.72;;;;;;;16.81;65.01;101649.44;4967524;28;119449;-81
2022/06/12 03:40:53;;;;;;;30.60;7.40;;;;;;;16.84;64.97;101646.50;4983927;28;120400;-81
2022/06/12 03:44:00;;;;;;;21.83;6.82;;;;;;;16.88;65.10;101657.38;4982944;28;119281;-81
2022/06/12 03:46:37;;;;;;;22.98;7.97;;;;;;;16.90;64.87;101665.22;4946586;28;119487;-81
2022/06/12 03:49:32;;;;;;;18.85;6.40;;;;;;;16.92;65.12;101669.06;4942550;28;120194;-81
2022/06/12 03:52:30;;;;;;;26.17;9.20;;;;;;;16.95;65.07;101673.66;4913374;28;119650;-79
2022/06/12 03:55:19;;;;;;;25.70;7.40;;;;;;;16.98;64.81;101683.03;4908399;28;119518;-80
2022/06/12 03:57:52;;;;;;;19.17;6.88;;;;;;;17.01;64.78;101685.63;4939425;28;119828;-81
2022/06/12 04:00:34;;;;;;;20.45;7.32;;;;;;;17.04;64.53;101676.41;4935154;28;119559;-81
2022/06/12 04:03:10;;;;;;;21.40;6.73;;;;;;;17.06;65.09;101673.16;4928417;28;119893;-81
2022/06/12 04:05:43;;;;;;;28.73;7.88;;;;;;;17.05;65.54;101666.06;4959908;28;119591;-80
2022/06/12 04:08:22;;;;;;;23.77;7.63;;;;;;;17.15;65.67;101681.41;4957420;28;119546;-78
2022/06/12 04:10:49;;;;;;;23.02;7.85;;;;;;;17.16;65.77;101683.69;4949638;28;119704;-79
2022/06/12 04:13:18;;;;;;;24.73;7.72;;;;;;;17.19;65.65;101685.53;4957142;28;119834;-80
2022/06/12 04:15:51;;;;;;;28.70;8.70;;;;;;;17.15;65.71;101678.63;4921659;28;119547;-78
2022/06/12 04:18:17;;;;;;;33.83;8.83;;;;;;;17.24;65.77;101686.13;4990596;28;119945;-77
2022/06/12 04:20:46;;;;;;;22.55;7.32;;;;;;;17.27;66.28;101696.25;4995367;28;119531;-78
2022/06/12 04:23:20;;;;;;;22.45;8.50;;;;;;;17.27;65.96;101690.72;4985985;28;119306;-77
2022/06/12 04:25:54;;;;;;;25.25;8.40;;;;;;;17.29;66.16;101693.81;4993701;28;120765;-78
2022/06/12 04:28:22;;;;;;;26.05;8.70;;;;;;;17.29;65.96;101688.25;4991190;28;120101;-78
2022/06/12 04:30:48;;;;;;;31.90;8.40;;;;;;;17.32;65.80;101687.31;4987254;28;121085;-78
2022/06/12 04:33:40;;;;;;;27.73;8.07;;;;;;;17.31;65.66;101669.13;4996263;28;119925;-78
2022/06/12 04:36:08;;;;;;;23.85;8.20;;;;;;;17.28;65.81;101659.00;4977166;28;120013;-78
2022/06/12 04:38:35;;;;;;;27.90;8.88;;;;;;;17.27;66.15;101655.47;4971700;28;119389;-78
2022/06/12 04:41:00;;;;;;;30.52;8.57;;;;;;;17.19;66.18;101641.16;4990355;28;120158;-78
2022/06/12 04:43:27;;;;;;;25.73;8.45;;;;;;;17.21;66.29;101646.25;4980442;28;119909;-78
2022/06/12 04:45:53;;;;;;;26.13;8.75;;;;;;;17.23;66.55;101648.53;4973207;28;119865;-78
2022/06/12 04:48:29;;;;;;;23.95;8.70;;;;;;;17.23;66.84;101645.75;4972869;28;119703;-78
2022/06/12 04:50:55;;;;;;;28.40;8.70;;;;;;;17.25;67.22;101613.53;4984925;28;119531;-78
2022/06/12 04:53:21;;;;;;;24.05;8.02;;;;;;;17.26;67.30;101623.41;5005545;28;119306;-78
2022/06/12 04:55:50;;;;;;;26.48;9.35;;;;;;;17.26;67.33;101620.63;4988977;28;119919;-78
2022/06/12 04:58:16;;;;;;;26.58;8.50;;;;;;;17.23;67.60;101609.72;4985516;28;119430;-78
2022/06/12 05:00:41;;;;;;;24.83;8.77;;;;;;;17.24;67.71;101612.00;4992876;28;119777;-78
2022/06/12 05:03:07;;;;;;;26.85;8.70;;;;;;;17.26;67.95;101617.09;4973562;28;120057;-78
2022/06/12 05:05:33;;;;;;;25.52;8.52;;;;;;;17.26;67.95;101615.06;4991491;28;122998;-78
2022/06/12 05:07:59;;;;;;;31.92;9.77;;;;;;;17.39;68.03;101631.47;4975222;28;119326;-78
2022/06/12 05:10:25;;;;;;;27.05;9.02;;;;;;;17.43;67.83;101640.38;4991836;28;119466;-78
2022/06/12 05:12:51;;;;;;;23.40;8.13;;;;;;;17.39;67.93;101623.91;4978498;28;120025;-78
2022/06/12 05:15:17;;;;;;;34.00;8.82;;;;;;;17.49;67.53;101638.47;4984616;28;119853;-78
2022/06/12 05:17:46;;;;;;;27.10;8.45;;;;;;;17.50;67.54;101640.00;4994609;28;119846;-78
2022/06/12 05:20:19;;;;;;;30.95;9.05;;;;;;;17.49;67.38;101639.22;4990933;28;120056;-78
2022/06/12 05:22:48;;;;;;;31.13;9.02;;;;;;;17.46;67.61;101622.78;4991461;28;122218;-78
2022/06/12 05:25:16;;;;;;;29.58;9.18;;;;;;;17.55;68.07;101628.25;4992425;28;119882;-78
2022/06/12 05:27:44;;;;;;;30.02;9.25;;;;;;;17.63;68.36;101626.63;4973656;28;119811;-78
2022/06/12 05:30:16;;;;;;;31.58;9.85;;;;;;;17.71;68.86;101627.81;4973131;28;119429;-78
2022/06/12 05:32:43;;;;;;;28.38;9.25;;;;;;;17.77;69.02;101630.72;4972703;28;119454;-78
2022/06/12 05:35:10;;;;;;;26.20;8.93;;;;;;;17.83;68.48;101631.56;4972111;28;120756;-79
2022/06/12 05:37:36;;;;;;;28.85;8.52;;;;;;;17.88;68.60;101638.47;4978279;28;119368;-78
2022/06/12 05:40:10;;;;;;;36.42;9.18;;;;;;;17.92;68.61;101628.69;4976475;28;119215;-77
2022/06/12 05:42:39;;;;;;;17.75;7.88;;;;;;;17.97;68.68;101639.13;4977126;28;119750;-78
2022/06/12 05:45:08;;;;;;;29.17;8.98;;;;;;;18.04;68.89;101632.44;4976550;28;120199;-78
2022/06/12 05:47:34;;;;;;;29.63;9.07;;;;;;;18.09;68.71;101638.06;4976633;28;119471;-78
2022/06/12 05:50:00;;;;;;;37.10;9.55;;;;;;;18.17;68.76;101646.78;5000704;28;119491;-78
2022/06/12 05:52:26;;;;;;;29.80;8.27;;;;;;;18.22;68.73;101643.34;4986395;28;119863;-78
2022/06/12 05:54:55;;;;;;;30.60;9.27;;;;;;;18.28;69.04;101652.53;4994995;28;119648;-78
2022/06/12 05:57:27;;;;;;;35.13;9.30;;;;;;;18.35;68.75;101649.34;4996360;28;120707;-78
2022/06/12 05:59:53;;;;;;;32.72;9.52;;;;;;;18.42;68.77;101646.16;4987811;28;121331;-78
2022/06/12 06:02:19;;;;;;;25.73;8.23;;;;;;;18.50;68.93;101641.00;4975135;28;119847;-78
2022/06/12 06:04:44;;;;;;;26.70;8.27;;;;;;;18.57;68.95;101645.38;4975996;28;120591;-78
2022/06/12 06:07:11;;;;;;;31.10;9.18;;;;;;;18.59;68.87;101631.78;4996935;28;119451;-78
2022/06/12 06:09:37;;;;;;;34.25;8.93;;;;;;;18.69;68.30;101641.53;5001339;27;119419;-78
2022/06/12 06:12:03;;;;;;;36.15;8.15;;;;;;;18.71;67.70;101625.16;4966874;28;119856;-78
2022/06/12 06:14:29;;;;;;;27.58;8.18;;;;;;;18.67;67.61;101621.81;4997277;28;119548;-78
2022/06/12 06:16:55;;;;;;;23.95;7.80;;;;;;;18.67;67.77;101619.78;4990726;28;119431;-78
2022/06/12 06:19:21;;;;;;;29.95;7.88;;;;;;;18.72;67.67;101615.56;4996552;28;119865;-78
2022/06/12 06:21:47;;;;;;;29.13;7.55;;;;;;;18.79;67.88;101629.06;4977895;28;119726;-78
2022/06/12 06:24:13;;;;;;;22.70;7.38;;;;;;;18.82;68.03;101632.88;4998440;28;120180;-78
2022/06/12 06:26:40;;;;;;;33.30;7.88;;;;;;;18.77;67.83;101619.69;4998194;27;119378;-77
2022/06/12 06:29:06;;;;;;;24.63;7.68;;;;;;;18.86;68.02;101633.44;4995371;28;119344;-78
2022/06/12 06:31:33;;;;;;;26.10;7.45;;;;;;;18.88;68.10;101637.25;4973441;28;119528;-78
2022/06/12 06:33:59;;;;;;;24.25;6.75;;;;;;;18.83;68.08;101624.06;4979396;28;120362;-78
2022/06/12 06:36:24;;;;;;;29.05;7.65;;;;;;;18.94;68.05;101640.91;4992225;28;119629;-78
2022/06/12 06:38:53;;;;;;;24.63;6.75;;;;;;;19.01;67.84;101634.91;4975799;28;119939;-79
2022/06/12 06:41:19;;;;;;;25.70;6.75;;;;;;;19.05;67.66;101626.38;4987458;28;119680;-78
2022/06/12 06:46:29;;;;;;;25.02;6.53;;;;;;;19.16;67.21;101618.13;4993976;28;119409;-78
2022/06/12 06:49:01;;;;;;;19.27;5.85;;;;;;;19.19;67.00;101622.00;4975926;28;119687;-78
2022/06/12 06:51:27;;;;;;;28.33;6.10;;;;;;;19.25;67.45;101622.81;4986700;28;119936;-78
2022/06/12 06:53:53;;;;;;;21.10;5.95;;;;;;;19.26;67.41;101616.75;4991387;28;119421;-78
2022/06/12 06:56:20;;;;;;;29.50;6.03;;;;;;;19.35;67.53;101620.63;4979054;28;121290;-78
2022/06/12 06:58:46;;;;;;;30.90;7.35;;;;;;;19.38;66.98;101606.50;4994759;28;119458;-78
2022/06/12 07:01:12;;;;;;;33.95;7.25;;;;;;;19.45;66.63;101616.47;4995630;28;119400;-78
2022/06/12 07:03:40;;;;;;;26.95;6.22;;;;;;;19.51;66.91;101620.06;4992497;28;119771;-78
2022/06/12 07:06:10;;;;;;;27.35;6.63;;;;;;;19.55;66.67;101610.28;5000676;28;120001;-80
2022/06/12 07:08:35;;;;;;;23.77;6.20;;;;;;;19.49;66.01;101597.53;4997568;28;119584;-81
2022/06/12 07:11:01;;;;;;;23.23;6.25;;;;;;;19.57;65.93;101604.97;4992762;28;120542;-80
2022/06/12 07:13:27;;;;;;;27.00;6.07;;;;;;;19.65;65.79;101615.69;4999972;28;119801;-79
2022/06/12 07:15:54;;;;;;;19.17;5.45;;;;;;;19.64;65.67;101612.16;4984645;28;121260;-79
2022/06/12 07:18:20;;;;;;;23.42;5.43;;;;;;;19.69;65.87;101614.22;4996314;28;121581;-79
2022/06/12 07:20:51;;;;;;;21.95;5.18;;;;;;;19.76;65.80;101619.34;4995088;28;119320;-78
2022/06/12 07:23:19;;;;;;;25.45;6.32;;;;;;;19.83;65.87;101618.13;4996867;28;119522;-81
2022/06/12 07:25:50;;;;;;;26.13;5.90;;;;;;;19.90;65.71;101615.69;4996969;28;119843;-78
2022/06/12 07:28:22;;;;;;;22.13;5.38;;;;;;;19.94;65.12;101607.09;5000000;28;119500;-78
2022/06/12 07:30:50;;;;;;;26.83;6.05;;;;;;;20.01;65.33;101611.44;4976938;28;119846;-78
2022/06/12 07:33:16;;;;;;;27.67;5.78;;;;;;;20.08;65.35;101611.75;4976225;28;119499;-78
2022/06/12 07:35:44;;;;;;;19.92;5.82;;;;;;;20.16;65.54;101607.28;4974993;28;120034;-79
2022/06/12 07:38:12;;;;;;;24.25;6.00;;;;;;;20.18;64.96;101598.44;4977053;28;120171;-79
2022/06/12 07:40:46;;;;;;;26.02;5.82;;;;;;;20.26;64.59;101601.50;4983425;28;119814;-78
2022/06/12 07:43:12;;;;;;;27.55;6.53;;;;;;;20.24;64.45;101602.78;4999734;28;120036;-78
2022/06/12 07:45:40;;;;;;;21.80;5.57;;;;;;;20.32;64.68;101597.50;5015724;27;119479;-78
2022/06/12 07:48:06;;;;;;;24.75;5.78;;;;;;;20.36;64.58;101600.06;5008307;28;119580;-78
2022/06/12 07:50:34;;;;;;;24.77;5.90;;;;;;;20.45;64.62;101595.09;4994506;28;120146;-79
2022/06/12 07:53:00;;;;;;;23.52;6.03;;;;;;;20.52;64.74;101599.44;4992271;28;119705;-78
2022/06/12 07:55:26;;;;;;;20.40;4.55;;;;;;;20.60;64.04;101594.94;4990870;28;122269;-79
2022/06/12 07:57:53;;;;;;;20.67;5.03;;;;;;;20.64;63.91;101594.69;4986741;28;120100;-78
2022/06/12 08:00:19;;;;;;;22.83;4.95;;;;;;;20.62;63.62;101589.63;4992284;27;119921;-78
2022/06/12 08:02:46;;;;;;;23.75;5.40;;;;;;;20.70;63.30;101606.63;4994963;28;119603;-78
2022/06/12 08:05:14;;;;;;;25.27;5.30;;;;;;;20.76;62.74;101599.81;4995262;28;119952;-78
2022/06/12 08:07:40;;;;;;;19.58;5.07;;;;;;;20.81;62.61;101590.72;4994744;28;119445;-79
2022/06/12 08:10:07;;;;;;;23.50;5.63;;;;;;;20.95;62.47;101604.97;4981849;28;120599;-79
2022/06/12 08:12:37;;;;;;;19.92;4.75;;;;;;;21.09;62.49;101598.44;4977185;28;119717;-78
2022/06/12 08:15:05;;;;;;;20.33;4.50;;;;;;;21.23;62.98;101596.69;4994313;28;120003;-78
2022/06/12 08:17:31;;;;;;;23.15;5.32;;;;;;;21.28;62.48;101591.16;4991559;28;119621;-79
2022/06/12 08:22:41;;;;;;;22.20;4.75;;;;;;;21.50;61.37;101600.84;4976607;28;122276;-79
2022/06/12 08:25:07;;;;;;;19.17;4.70;;;;;;;21.55;60.69;101603.69;4982805;28;120291;-79
2022/06/12 08:27:32;;;;;;;21.05;5.22;;;;;;;21.53;60.77;101597.06;4976239;28;119916;-78
2022/06/12 08:29:58;;;;;;;23.23;5.15;;;;;;;21.66;60.59;101602.91;4994906;28;119505;-79
2022/06/12 08:32:24;;;;;;;19.27;5.00;;;;;;;21.76;60.47;101604.19;4985329;28;122640;-79
2022/06/12 08:35:01;;;;;;;15.77;4.45;;;;;;;21.90;60.33;101599.63;4986862;28;120943;-79
2022/06/12 08:37:37;;;;;;;17.15;4.78;;;;;;;21.98;59.63;101590.22;4992161;28;120176;-79
2022/06/12 08:40:13;;;;;;;21.35;5.05;;;;;;;21.98;59.25;101595.81;4986759;28;119760;-78
2022/06/12 08:43:04;;;;;;;22.42;4.45;;;;;;;22.02;58.87;101587.97;4983991;28;119651;-79
2022/06/12 08:45:38;;;;;;;22.20;5.55;;;;;;;22.01;58.77;101582.88;4976781;28;120507;-79
2022/06/12 08:48:27;;;;;;;17.67;4.30;;;;;;;22.07;58.66;101596.88;4985832;28;120103;-78
2022/06/12 08:51:17;;;;;;;16.00;4.15;;;;;;;22.12;58.80;101594.06;4996368;28;120113;-79
2022/06/12 08:53:50;;;;;;;16.13;4.20;;;;;;;22.24;58.41;101592.81;4994955;28;120403;-79
2022/06/12 08:56:25;;;;;;;22.83;4.55;;;;;;;22.35;58.92;101583.63;4969400;28;120347;-79
2022/06/12 08:59:09;;;;;;;24.83;4.60;;;;;;;22.49;59.23;101587.41;4988784;28;122088;-79
2022/06/12 09:01:41;;;;;;;23.07;4.93;;;;;;;22.51;58.26;101585.63;4983363;28;120507;-79
2022/06/12 09:04:13;;;;;;;17.42;4.53;;;;;;;22.47;57.96;101587.91;4988196;28;119765;-79
2022/06/12 09:06:41;;;;;;;20.88;4.78;;;;;;;22.44;58.13;101588.94;4981094;28;119803;-79
2022/06/12 09:09:27;;;;;;;14.43;4.10;;;;;;;22.44;57.67;101591.72;4973947;28;120306;-78
2022/06/12 09:12:21;;;;;;;16.10;4.60;;;;;;;22.47;57.79;101585.09;4984116;28;120660;-79
2022/06/12 09:15:14;;;;;;;16.85;4.63;;;;;;;22.54;57.67;101579.00;4991409;28;120458;-79
2022/06/12 09:17:49;;;;;;;18.38;4.68;;;;;;;22.63;57.49;101573.13;4991302;28;121061;-78
2022/06/12 09:20:39;;;;;;;25.42;5.00;;;;;;;22.75;57.64;101579.47;4983733;28;120213;-79
2022/06/12 09:23:48;;;;;;;17.08;3.88;;;;;;;22.79;57.27;101574.34;4988954;28;120406;-79
2022/06/12 09:26:36;;;;;;;15.45;4.22;;;;;;;22.82;56.85;101576.16;4969405;28;120874;-79
2022/06/12 09:29:17;;;;;;;22.70;4.20;;;;;;;22.79;56.86;101574.34;4972651;28;121524;-79
2022/06/12 09:31:53;;;;;;;17.98;4.22;;;;;;;22.72;56.49;101565.75;4983877;28;120265;-79
2022/06/12 09:34:25;;;;;;;15.07;4.03;;;;;;;22.65;56.26;101572.63;4981231;28;121517;-79
2022/06/12 09:38:18;;;;;;;15.52;4.20;;;;;;;22.62;56.38;101568.03;4995826;28;120442;-79
2022/06/12 09:40:05;;;;;;;16.92;4.32;;;;;;;22.63;56.89;101564.75;4986219;28;120763;-79
2022/06/12 09:42:55;;;;;;;17.63;4.55;;;;;;;22.61;56.65;101560.94;4987895;28;120446;-78
2022/06/12 09:45:33;;;;;;;15.38;4.15;;;;;;;22.59;56.28;101567.03;4989742;28;120356;-79
2022/06/12 09:48:05;;;;;;;12.30;3.58;;;;;;;22.55;56.07;101574.94;4998223;28;120294;-79
2022/06/12 09:50:46;;;;;;;13.75;4.15;;;;;;;22.44;55.88;101563.78;4993197;28;121793;-78
2022/06/12 09:53:25;;;;;;;13.85;3.90;;;;;;;22.31;55.43;101549.59;4990634;28;120157;-79
2022/06/12 09:56:07;;;;;;;15.82;3.97;;;;;;;22.29;55.72;101558.50;4981770;28;119914;-79
2022/06/12 09:58:43;;;;;;;14.98;3.80;;;;;;;22.32;56.07;101556.69;4988076;28;120054;-79
2022/06/12 10:01:15;;;;;;;16.33;3.97;;;;;;;22.37;56.01;101555.91;4980026;28;120359;-79
2022/06/12 10:04:10;;;;;;;18.80;4.03;;;;;;;22.43;55.81;101555.91;4997784;28;119967;-79
2022/06/12 10:06:50;;;;;;;17.90;4.10;;;;;;;22.47;56.13;101559.94;4987366;28;120694;-79
2022/06/12 10:09:24;;;;;;;16.00;3.95;;;;;;;22.47;54.83;101548.00;4983644;28;120182;-79
2022/06/12 10:12:02;;;;;;;16.65;4.00;;;;;;;22.43;54.97;101542.69;4982166;28;122791;-79
2022/06/12 10:14:48;;;;;;;15.20;3.75;;;;;;;22.41;54.23;101536.84;4995124;28;120363;-79
2022/06/12 10:17:30;;;;;;;15.52;4.40;;;;;;;22.38;54.82;101543.47;4992584;28;120766;-80
2022/06/12 10:20:05;;;;;;;17.63;3.85;;;;;;;22.38;54.33;101537.88;4986532;28;120697;-79
2022/06/12 10:22:47;;;;;;;16.48;4.93;;;;;;;22.42;55.17;101543.97;4988426;28;120120;-80
2022/06/12 10:25:27;;;;;;;15.35;4.05;;;;;;;22.46;54.28;101538.84;4981784;28;119845;-79
2022/06/12 10:28:01;;;;;;;14.50;3.35;;;;;;;22.52;53.71;101541.66;4989231;28;120732;-79
2022/06/12 10:30:38;;;;;;;14.18;3.53;;;;;;;22.51;53.62;101526.16;4990558;28;120322;-79
2022/06/12 10:33:25;;;;;;;12.32;3.55;;;;;;;22.53;53.59;101534.78;4993544;28;122374;-79
2022/06/12 10:35:54;;;;;;;13.20;3.75;;;;;;;22.59;53.40;101521.53;4990746;28;120534;-78
2022/06/12 10:38:22;;;;;;;18.38;3.40;;;;;;;22.62;53.21;101535.25;4980749;28;120843;-78
2022/06/12 10:40:53;;;;;;;14.95;3.42;;;;;;;22.65;53.09;101525.84;4992428;28;120832;-78
2022/06/12 10:43:34;;;;;;;12.82;3.40;;;;;;;22.67;51.74;101522.53;4991698;28;121013;-79
2022/06/12 10:46:15;;;;;;;16.00;3.72;;;;;;;22.70;52.03;101515.13;4987024;28;119978;-78
2022/06/12 10:48:43;;;;;;;12.05;2.55;;;;;;;22.71;51.59;101519.44;4986928;28;120919;-79
2022/06/12 10:51:27;;;;;;;12.27;2.97;;;;;;;22.74;50.95;101521.25;4989574;28;120328;-79
2022/06/12 10:53:59;;;;;;;12.40;2.88;;;;;;;22.71;50.22;101519.44;4989205;28;120352;-79
2022/06/12 10:56:53;;;;;;;9.43;2.70;;;;;;;22.66;49.88;101513.38;4991190;28;120490;-79
2022/06/12 10:59:48;;;;;;;12.10;3.47;;;;;;;22.60;49.86;101509.84;4976563;28;120056;-79
2022/06/12 11:02:42;;;;;;;11.38;3.00;;;;;;;22.55;50.05;101527.41;4976762;28;121506;-79
2022/06/12 11:05:39;;;;;;;7.40;2.55;;;;;;;22.48;49.10;101533.53;4984118;28;120151;-79
2022/06/12 11:08:23;;;;;;;8.35;2.67;;;;;;;22.43;48.95;101514.72;4993863;28;120399;-78
2022/06/12 11:11:12;;;;;;;10.52;3.10;;;;;;;22.43;48.78;101523.13;4992134;28;121002;-79
2022/06/12 11:13:41;;;;;;;9.80;2.88;;;;;;;22.48;49.36;101518.81;4973802;28;120299;-79
2022/06/12 11:16:13;;;;;;;11.68;2.92;;;;;;;22.53;49.19;101520.81;4974189;28;120000;-79
2022/06/12 11:18:58;;;;;;;8.02;2.50;;;;;;;22.58;49.37;101520.03;4987736;28;121607;-79
2022/06/12 11:21:46;;;;;;;8.88;3.00;;;;;;;22.63;48.98;101516.44;4994723;28;120983;-79
2022/06/12 11:24:18;;;;;;;13.60;3.20;;;;;;;22.66;49.28;101512.63;4995247;28;120582;-79
2022/06/12 11:26:51;;;;;;;17.23;3.20;;;;;;;22.66;49.33;101529.38;4992449;28;121083;-79
2022/06/12 11:29:38;;;;;;;15.18;3.53;;;;;;;22.72;49.25;101532.94;5017231;27;120009;-79
2022/06/12 11:32:22;;;;;;;10.73;3.33;;;;;;;22.67;49.78;101520.47;5015287;28;120801;-79
2022/06/12 11:34:53;;;;;;;12.65;3.63;;;;;;;22.66;50.67;101529.38;4982817;28;120079;-78
2022/06/12 11:37:38;;;;;;;8.98;3.05;;;;;;;22.65;50.67;101531.44;4995723;28;120780;-79
2022/06/12 11:40:38;;;;;;;10.88;3.30;;;;;;;22.64;50.76;101535.50;4978837;28;119933;-78
2022/06/12 11:43:32;;;;;;;14.10;3.65;;;;;;;22.62;50.13;101532.47;4963380;28;120563;-79
2022/06/12 11:46:19;;;;;;;13.47;3.60;;;;;;;22.63;50.79;101527.63;4979483;28;120978;-78
2022/06/12 11:49:07;;;;;;;12.40;2.92;;;;;;;22.62;50.05;101540.84;4988368;28;120128;-79
2022/06/12 11:52:12;;;;;;;14.70;3.90;;;;;;;22.57;49.98;101538.06;4983763;28;119935;-79